ADDS METAR Data INFO
IDs: Format: Raw Decoded Include TAF

Data at: 2320 UTC 15 Jul 2018

KAAF 152253Z AUTO 20006KT 10SM FEW027 32/26 A3000 RMK AO2 SLP159 T03170256 $
KAAF 152153Z AUTO 00000KT 10SM CLR 31/26 A3001 RMK AO2 SLP161 T03060261 $
KAAF 152053Z AUTO 03007KT 10SM CLR 29/25 A3001 RMK AO2 SLP162 60000 T02890250 58012 $
KAAF 151953Z AUTO 00000KT 10SM CLR 28/25 A3003 RMK AO2 LTG DSNT N RAB23E34 TSB1855E16 SLP168 P0000 T02830250 $
KAAF 151916Z AUTO 36005KT 10SM SCT028 OVC050 28/25 A3004 RMK AO2 LTG DSNT N AND NE TSB1855E16 T02830250 $
KAAF 151901Z AUTO 32007KT 10SM TS BKN026 OVC032 28/25 A3004 RMK AO2 LTG DSNT N AND NE TSB1855 T02830250 $
KAAF 151853Z AUTO 33007KT 10SM VCTS BKN027 BKN032 28/25 A3004 RMK AO2 LTG DSNT NW-NE TSE15B17E32 SLP173 T02830250 $
KAAF 151838Z AUTO VRB05KT 10SM VCTS SCT031 31/26 A3005 RMK AO2 LTG DSNT NW-NE TSE15B17E32 T03110256 $
KAAF 151753Z AUTO 18007KT 10SM TS CLR 31/26 A3005 RMK AO2 LTG DSNT W-NE TSB41 SLP174 T03110261 10328 20283 58007 $
KAAF 151715Z AUTO 16007KT 10SM VCTS CLR 32/26 A3005 RMK AO2 LTG DSNT N-E T03220256 $
KAAF 151703Z AUTO 18007KT 10SM CLR 32/26 A3005 RMK AO2 LTG DSNT NE AND E T03220256 $
KAAF 151653Z AUTO VRB06KT 10SM VCTS CLR 32/26 A3005 RMK AO2 LTG DSNT NE TSB36E51 SLP176 T03170261 $
KAAF 151636Z AUTO 17006KT 10SM TS CLR 32/26 A3006 RMK AO2 TSB36 T03170261 $
KAAF 151553Z AUTO 16006KT 10SM CLR 32/26 A3007 RMK AO2 SLP183 T03170256 $
KAAF 151453Z AUTO 26006KT 10SM CLR 30/26 A3007 RMK AO2 SLP181 T03000261 50006 $
KAAF 151353Z AUTO 00000KT 10SM CLR 30/25 A3007 RMK AO2 SLP183 T03000250 $
KAAF 151346Z AUTO 32003KT 10SM CLR 30/24 A3007 RMK AO2 LTG DSNT W T03000244 $
KAAF 151331Z AUTO 30004KT 10SM VCTS FEW025 29/24 A3007 RMK AO2 LTG DSNT W T02940244 $
KAAF 151253Z AUTO 00000KT 10SM FEW048 28/25 A3006 RMK AO2 LTG DSNT S-W SLP180 T02830250 $
KAAF 151231Z AUTO 29003KT 10SM SCT025 SCT033 BKN046 27/25 A3006 RMK AO2 LTG DSNT SW AND W T02720250 $
KAAF 151208Z AUTO 31006KT 10SM VCTS BKN025 BKN044 28/26 A3006 RMK AO2 LTG DSNT SW AND W T02780261 $
KAAF 151153Z AUTO 01003KT 10SM FEW025 SCT034 BKN044 27/26 A3005 RMK AO2 LTG DSNT SW SLP175 T02670256 10267 20244 53009 $
KAAF 151144Z AUTO 05004KT 10SM SCT025 BKN034 BKN044 26/25 A3005 RMK AO2 T02560250 $
KAAF 151135Z AUTO 05003KT 10SM BKN025 BKN034 26/25 A3005 RMK AO2 LTG DSNT W AND NW T02560250 $
KAAF 151053Z AUTO 00000KT 10SM CLR 24/24 A3003 RMK AO2 LTG DSNT W AND NW SLP170 T02440244
KAAF 150953Z AUTO 05003KT 10SM FEW029 24/24 A3003 RMK AO2 LTG DSNT W SLP168 T02440244
KAAF 150853Z AUTO 04003KT 10SM CLR 24/24 A3002 RMK AO2 SLP166 T02440244 58006
KAAF 150753Z AUTO 04003KT 10SM CLR 25/25 A3003 RMK AO2 SLP167 T02500250
KAAF 150653Z AUTO 00000KT 10SM CLR 25/25 A3004 RMK AO2 SLP172 T02500250
KAAF 150553Z AUTO 07003KT 10SM CLR 25/25 A3004 RMK AO2 SLP172 T02500250 10267 20244 58007
KAAF 150453Z AUTO 04003KT 10SM CLR 25/24 A3006 RMK AO2 SLP178 T02500239 403390244
KAAF 150353Z AUTO 00000KT 10SM CLR 25/24 A3006 RMK AO2 SLP179 T02500244
KAAF 150253Z AUTO 00000KT 10SM CLR 26/25 A3006 RMK AO2 SLP179 T02560250 52010
KAAF 150153Z AUTO 00000KT 10SM CLR 26/24 A3006 RMK AO2 SLP177 T02610244
KAAF 150053Z AUTO 35003KT 10SM CLR 26/25 A3004 RMK AO2 SLP171 T02610250
KAAF 142353Z AUTO 03003KT 10SM CLR 27/24 A3003 RMK AO2 SLP169 T02670239 10339 20261 58003
KAAF 142253Z AUTO 00000KT 10SM CLR 26/23 A3004 RMK AO2 SLP172 T02610233
KAAF 142209Z AUTO 33003KT 10SM FEW120 26/23 A3004 RMK AO2 PRESFR T02610233
KAAF 142153Z AUTO 01007G17KT 10SM VCTS SCT034 BKN046 BKN060 26/24 A3008 RMK AO2 PK WND 05027/2129 LTG DSNT N AND NE SLP185 T02610239
KAAF 142107Z AUTO 27008KT 10SM VCTS CLR 32/25 A3005 RMK AO2 LTG DSNT N AND NE T03170250
KAAF 142053Z AUTO 25011KT 10SM CLR 33/26 A3004 RMK AO2 LTG DSNT NW-NE SLP173 T03280256 56014
KAAF 141953Z AUTO 23012KT 10SM CLR 33/26 A3005 RMK AO2 LTG DSNT N AND NE SLP175 T03330256
KAAF 141853Z AUTO 23010KT 10SM CLR 33/26 A3007 RMK AO2 SLP182 T03330256
KAAF 141753Z AUTO 22011KT 10SM CLR 33/27 A3008 RMK AO2 SLP187 T03280267 10333 20267 58007
KAAF 141653Z AUTO VRB06KT 10SM FEW040 SCT048 BKN065 33/25 A3010 RMK AO2 SLP193 T03330250
KAAF 141553Z AUTO 19003KT 10SM CLR 33/24 A3010 RMK AO2 SLP193 T03280244
KAAF 141453Z AUTO 33004KT 10SM CLR 32/24 A3010 RMK AO2 SLP193 T03170244 51006
KAAF 141353Z AUTO 36005KT 10SM CLR 31/26 A3010 RMK AO2 SLP193 T03110256
KAAF 141253Z AUTO 36004KT 10SM CLR 29/26 A3009 RMK AO2 SLP190 T02890261
KAAF 141153Z AUTO 00000KT 10SM CLR 27/25 A3008 RMK AO2 SLP187 T02670250 10272 20244 51009